createdAt,value
2022-09-06T00:07:11.638Z,49.72
2022-09-06T00:24:01.181Z,50.58
2022-09-06T00:40:53.392Z,50.80
2022-09-06T00:57:43.723Z,50.15
2022-09-06T01:14:45.525Z,50.02
2022-09-06T01:31:41.043Z,50.64
2022-09-06T01:48:41.506Z,50.89
2022-09-06T02:05:39.669Z,51.51
2022-09-06T02:22:32.352Z,51.56
2022-09-06T02:39:22.774Z,51.57
2022-09-06T02:56:14.722Z,51.90
2022-09-06T03:13:06.841Z,52.21
2022-09-06T03:29:55.425Z,52.91
2022-09-06T03:46:44.768Z,53.13
2022-09-06T04:03:33.264Z,53.06
2022-09-06T04:20:21.610Z,52.80
2022-09-06T04:37:10.359Z,53.25
2022-09-06T04:54:01.839Z,53.18
2022-09-06T05:10:52.688Z,53.03
2022-09-06T05:27:41.108Z,52.33
2022-09-06T05:44:29.969Z,52.22
2022-09-06T06:01:27.207Z,51.91
2022-09-06T06:18:16.198Z,51.46
2022-09-06T06:35:09.761Z,50.94
2022-09-06T06:51:58.436Z,50.16
2022-09-06T07:08:48.393Z,49.64
2022-09-06T07:25:38.885Z,49.62
2022-09-06T07:42:27.906Z,48.83
2022-09-06T07:59:17.003Z,47.95
2022-09-06T08:16:07.312Z,48.73
2022-09-06T08:33:00.715Z,47.58
2022-09-06T08:50:00.767Z,46.98
2022-09-06T09:06:58.048Z,46.16
2022-09-06T09:23:56.657Z,45.35
2022-09-06T09:40:54.389Z,46.18
2022-09-06T09:57:52.004Z,44.79
2022-09-06T10:14:50.312Z,44.30
2022-09-06T10:32:07.921Z,44.44
2022-09-06T10:48:56.726Z,44.09
2022-09-06T11:05:56.219Z,44.21
2022-09-06T11:23:00.214Z,43.67
2022-09-06T11:57:19.274Z,42.44
2022-09-06T12:14:11.288Z,43.03
2022-09-06T12:31:01.283Z,42.13
2022-09-06T12:47:52.421Z,41.85
2022-09-06T13:04:44.309Z,40.99
2022-09-06T13:21:36.805Z,42.05
2022-09-06T13:38:41.633Z,40.91
2022-09-06T13:55:35.209Z,40.85
2022-09-06T14:12:21.826Z,39.73
2022-09-06T14:29:13.346Z,39.92
2022-09-06T14:46:08.997Z,39.88
2022-09-06T15:02:57.863Z,39.37
2022-09-06T15:19:49.249Z,39.13
2022-09-06T15:36:38.485Z,38.99
2022-09-06T15:53:26.901Z,38.99
2022-09-06T16:10:15.673Z,39.29
2022-09-06T16:27:04.261Z,39.32
2022-09-06T16:43:54.467Z,39.03
2022-09-06T17:00:46.152Z,39.53
2022-09-06T17:17:34.971Z,39.77
2022-09-06T17:34:23.233Z,39.72
2022-09-06T17:51:12.679Z,39.93
2022-09-06T18:08:01.216Z,40.26
2022-09-06T18:24:53.020Z,40.72
2022-09-06T18:42:07.463Z,40.46
2022-09-06T18:59:01.744Z,40.69
2022-09-06T19:15:52.883Z,41.07
2022-09-06T19:32:44.622Z,41.39
2022-09-06T19:49:33.119Z,42.17
2022-09-06T20:06:22.831Z,42.52
2022-09-06T20:23:13.762Z,42.70
2022-09-06T20:40:05.560Z,43.23
2022-09-06T20:56:55.500Z,43.41
2022-09-06T21:13:46.219Z,44.05
2022-09-06T21:30:35.482Z,43.48
2022-09-06T21:47:23.788Z,43.64
2022-09-06T22:04:12.892Z,44.32
2022-09-06T22:21:05.842Z,44.58
2022-09-06T22:37:58.408Z,44.66
2022-09-06T22:54:47.422Z,45.28
2022-09-06T23:11:38.642Z,45.53
2022-09-06T23:28:30.601Z,45.74
2022-09-06T23:45:20.796Z,45.84
